Bei Facebook empfehlenBei Twitter postenGoogle plusPinterest

Das Wetter im Erzgebirge am 20.04.2016

Wetter und Klima am 20.04.2016 Holzhau im Erzgebirge (630m ü.NN)
Letzte gemessene Temperatur und Uhrzeit der Messung23:45:00 Uhr-2.10 °C
Temperatur (Maximum / Höchstwert) und Uhrzeit der Messung15:30:00 Uhr9.90 °C
Temperatur (Minimum / Tiefstwert) und Uhrzeit der Messung23:45:00-2.10 °C
Errechneter Absolutwert der Temperaturschwankungen zwischen Tmin und Tmax des Tages12.00 K
Errechnete Tagesmitteltemperatur4.11771 °C
Gesamt - Niederschlag des Tages (in flüssiger Form)0.00 Liter / m²
Luftdruck (Maximum / Höchstwert) und Zeitpunkt der Messung15:30:00 Uhr1023.90 hPa
Luftdruck (Minimum / Tiefstwert) und Zeitpunkt der Messung00:30:00 Uhr1020.20 hPa
Errechneter Absolutwert der Luftdruckschwankungen des Tages3.70 hPa
Höchste gemessene Windgeschwindigkeit und Uhrzeit der Messung23:45:00 Uhr0.00 km/h
Errechnete Windhäufigkeit in Relation zu den Messwerten des Tages0.00000 %
Niedrigste Windkühle (Windchill) und Zeitpunkt der Messung23:45:00 Uhr-2.10 °C
Taupunkt (Maximum / Höchstwert) und Uhrzeit der Messung12:15:00 Uhr2.70 °C
Taupunkt (Minimum / Tiefstwert) und Uhrzeit der Messung23:00:00-4.70 °C
Anzahl der automatisch eingelesenen Messwerte 96

Detaillierte Wetter- und Klima- Messwerte für den 20.04.2016 in Holzhau im Erzgebirge (630m ü.NN)
ZeitTemperaturLuftdruckRel. LuftfeuchteWindWindrichtungWindchillTaupunktNiederschlag l/m²
23:45:00-2.10 °C1023.40 hPa85.00 %-4.50 °C 
23:30:00-2.10 °C1023.20 hPa85.00 %-4.50 °C 
23:15:00-1.90 °C1023.30 hPa84.00 %-4.50 °C 
23:00:00-1.90 °C1023.30 hPa83.00 %-4.70 °C 
22:45:00-1.90 °C1023.40 hPa83.00 %-4.70 °C 
22:30:00-1.70 °C1023.30 hPa83.00 %-4.50 °C 
22:15:00-1.60 °C1023.40 hPa82.00 %-4.60 °C 
22:00:00-1.40 °C1023.50 hPa81.00 %-4.60 °C 
21:45:00-1.10 °C1023.40 hPa81.00 %-4.30 °C 
21:30:00-0.90 °C1023.40 hPa79.00 %-4.50 °C 
21:15:00-0.60 °C1023.30 hPa78.00 %-4.30 °C 
21:00:00-0.20 °C1023.40 hPa78.00 %-4.00 °C 
20:45:000.00 °C1023.40 hPa76.00 %-4.20 °C 
20:30:000.40 °C1023.40 hPa76.00 %-3.30 °C 
20:15:000.90 °C1023.30 hPa74.00 %-3.20 °C 
20:00:001.60 °C1023.30 hPa73.00 %-2.70 °C 
19:45:002.50 °C1023.10 hPa71.00 %-2.20 °C 
19:30:003.50 °C1023.20 hPa70.00 %-1.40 °C 
19:15:004.50 °C1023.10 hPa67.00 %-1.10 °C 
19:00:005.40 °C1022.90 hPa66.00 %-0.40 °C 
18:45:006.10 °C1023.00 hPa65.00 %0.00 °C 
18:30:006.70 °C1023.20 hPa64.00 %0.40 °C 
18:15:007.20 °C1023.30 hPa63.00 %0.60 °C 
18:00:007.80 °C1023.20 hPa62.00 %1.00 °C 
17:45:008.10 °C1023.20 hPa61.00 %1.00 °C 
17:30:008.30 °C1023.30 hPa60.00 %1.00 °C 
17:15:008.60 °C1023.70 hPa60.00 %1.30 °C 
17:00:009.10 °C1023.80 hPa59.00 %1.50 °C 
16:45:009.50 °C1023.70 hPa59.00 %1.90 °C 
16:30:009.60 °C1023.70 hPa60.00 %2.20 °C 
16:15:009.60 °C1023.70 hPa60.00 %2.20 °C 
16:00:009.40 °C1023.70 hPa60.00 %2.00 °C 
15:45:009.10 °C1023.70 hPa59.00 %1.50 °C 
15:30:009.90 °C1023.90 hPa59.00 %2.30 °C 
15:15:009.50 °C1023.80 hPa59.00 %1.90 °C 
15:00:009.30 °C1023.80 hPa59.00 %1.70 °C 
14:45:009.50 °C1023.60 hPa60.00 %2.10 °C 
14:30:009.20 °C1023.70 hPa62.00 %2.30 °C 
14:15:008.90 °C1023.60 hPa61.00 %1.80 °C 
14:00:009.10 °C1023.60 hPa62.00 %2.20 °C 
13:45:009.10 °C1023.50 hPa63.00 %2.40 °C 
13:30:008.90 °C1023.30 hPa64.00 %2.50 °C 
13:15:008.80 °C1023.40 hPa64.00 %2.40 °C 
13:00:008.70 °C1023.50 hPa64.00 %2.30 °C 
12:45:008.60 °C1023.30 hPa66.00 %2.60 °C 
12:30:008.40 °C1023.30 hPa67.00 %2.60 °C 
12:15:008.20 °C1023.40 hPa68.00 %2.70 °C 
12:00:007.50 °C1023.20 hPa68.00 %2.00 °C 
11:45:007.10 °C1023.40 hPa68.00 %1.60 °C 
11:30:006.90 °C1023.40 hPa70.00 %1.80 °C 
11:15:006.30 °C1023.70 hPa70.00 %1.20 °C 
11:00:006.60 °C1023.40 hPa70.00 %1.50 °C 
10:45:006.80 °C1023.70 hPa71.00 %1.90 °C 
10:30:006.40 °C1023.90 hPa74.00 %2.10 °C 
10:15:005.90 °C1023.60 hPa74.00 %1.60 °C 
10:00:005.80 °C1023.40 hPa75.00 %1.70 °C 
09:45:005.30 °C1023.50 hPa77.00 %1.60 °C 
09:30:004.90 °C1023.50 hPa80.00 %1.70 °C 
09:15:004.40 °C1023.30 hPa81.00 %1.40 °C 
09:00:003.90 °C1023.20 hPa82.00 %1.10 °C 
08:45:003.30 °C1023.30 hPa84.00 %0.90 °C 
08:30:002.80 °C1023.10 hPa85.00 %0.50 °C 
08:15:002.50 °C1023.10 hPa85.00 %0.20 °C 
08:00:002.30 °C1022.70 hPa86.00 %0.20 °C 
07:45:002.10 °C1022.80 hPa86.00 %0.00 °C 
07:30:001.90 °C1022.70 hPa87.00 %0.00 °C 
07:15:001.80 °C1022.50 hPa87.00 %-0.10 °C 
07:00:001.80 °C1022.40 hPa87.00 %-0.10 °C 
06:45:001.80 °C1022.20 hPa87.00 %-0.10 °C 
06:30:001.60 °C1022.00 hPa87.00 %-0.30 °C 
06:15:001.60 °C1021.90 hPa87.00 %-0.30 °C 
06:00:001.50 °C1021.80 hPa87.00 %-0.40 °C 
05:45:001.50 °C1021.60 hPa87.00 %-0.40 °C 
05:30:001.50 °C1021.40 hPa87.00 %-0.40 °C 
05:15:001.50 °C1021.30 hPa86.00 %-0.60 °C 
05:00:001.60 °C1021.30 hPa86.00 %-0.50 °C 
04:45:001.60 °C1021.20 hPa86.00 %-0.50 °C 
04:30:001.60 °C1021.20 hPa85.00 %-0.60 °C 
04:15:001.80 °C1021.20 hPa86.00 %-0.30 °C 
04:00:001.90 °C1021.10 hPa85.00 %-0.30 °C 
03:45:002.00 °C1021.10 hPa85.00 %-0.20 °C 
03:30:002.10 °C1021.00 hPa84.00 %-0.30 °C 
03:15:002.10 °C1021.10 hPa83.00 %-0.50 °C 
03:00:002.20 °C1021.10 hPa83.00 %-0.40 °C 
02:45:002.30 °C1021.10 hPa83.00 %-0.30 °C 
02:30:002.40 °C1021.10 hPa83.00 %-0.20 °C 
02:15:002.50 °C1020.80 hPa82.00 %-0.30 °C 
02:00:002.60 °C1020.80 hPa82.00 %-0.20 °C 
01:45:002.80 °C1020.80 hPa81.00 %-0.10 °C 
01:30:002.90 °C1020.50 hPa81.00 %0.00 °C 
01:15:003.00 °C1020.50 hPa81.00 %0.10 °C 
01:00:003.10 °C1020.30 hPa80.00 %0.00 °C 
00:45:003.20 °C1020.30 hPa80.00 %0.10 °C 
00:30:003.20 °C1020.20 hPa80.00 %0.10 °C 
00:15:003.20 °C1020.30 hPa79.00 %-0.10 °C 
00:00:003.30 °C1020.20 hPa79.00 %0.00 °C 

Permanenter Link zu dieser Seite: Wetter im Erzgebirge am 20.04.2016
Performance-Info: Die Erstellung der Seite / Statistik(en) / Tabelle(n) erforderte 5 Datenbankserver-Abfrage(n) und dauerte 98 Millisekunden. (Dieser Messwert ist von der Gesamt-Auslastung des Servers abhängig.)
Erzgebirge - Wetter | Erzgebirge - Wetter (Mobilgeräte) | Komplette Klimadatenbank